Joe Foss Field Airport
KFSD : now visible

Airfield :











YOU CAN JOIN US ON...

 
LOGIN :

Register | Disclaimer

   EN    FR    IT 

 









Legend :    VFR   Marginal VFR   IFR   Intensive IFR   Very Intensive IFR
Visi :
Ceiling :
>= 8 km
>= 3000ft
5 to 8 km
1000 to 3000 ft
1500m to 5 km
500 to 1000 ft
800 to 1500m
200 to 500 ft
< 800m
< 200 ft
Symbols :   Thunderstorms  Fog  Heavy snow  Heavy precipitations  Wind > 20 kt







- Airport Elevation : 1429 ft
- IATA code : FSD


KFSD - Joe Foss Field

CURRENT METAR :
  • 162156Z 15012KT 10SM OVC200 28/22 A2991 RMK AO2 SLP118 T02830217

EXPIRED METARs :
  • 162056Z 16010G19KT 10SM OVC220 28/21 A2991 RMK AO2 SLP119 T02830206 56010
  • 161956Z 15011KT 10SM OVC250 28/20 A2992 RMK AO2 SLP120 T02830200

TAF KFSD
Valid from the 16 at 18:00 until the 17 at 18:00 UTC


161720Z 1618/1718 17014G22KT P6SM BKN250
FM170400 16013G19KT P6SM SCT150 WS014/18045KT
FM171300 17014G21KT P6SM SCT100
No reported NOTAMs for that airfield.



MET'MAP, your aeronautical weather chart ! - Copyright ORBIFLY December 2007 - Disclaimer

ORBIFLY MET'MAP TEAM :

Programming & Development : Alexandra Zaïnal
Concept & Development : Baudouin d'Aumeries
Co-Development & Prog : Marc-Olivier Méhu
Technical & hardware support : Manuel Goepfert

Contact : metmap@orbifly.com




SOURCES & CREDITS :

   NOAA       Earth
Advisory